createdAt,value
2019-05-01T00:02:23.169Z,50.60
2019-05-01T00:05:06.178Z,50.60
2019-05-01T00:07:37.149Z,50.60
2019-05-01T00:10:08.039Z,50.60
2019-05-01T00:12:37.767Z,50.60
2019-05-01T00:15:09.070Z,50.60
2019-05-01T00:17:38.844Z,50.60
2019-05-01T00:20:08.568Z,50.60
2019-05-01T00:22:38.215Z,50.60
2019-05-01T00:25:07.785Z,50.60
2019-05-01T00:27:39.071Z,50.60
2019-05-01T00:30:11.442Z,50.60
2019-05-01T00:32:41.098Z,50.60
2019-05-01T00:35:10.764Z,50.60
2019-05-01T00:37:40.393Z,50.60
2019-05-01T00:40:10.037Z,50.60
2019-05-01T00:42:39.773Z,50.60
2019-05-01T00:45:09.452Z,50.60
2019-05-01T00:47:39.177Z,50.60
2019-05-01T00:50:08.925Z,50.60
2019-05-01T00:52:38.549Z,50.60
2019-05-01T00:55:25.983Z,50.60
2019-05-01T00:58:10.090Z,50.60
2019-05-01T01:01:01.591Z,50.50
2019-05-01T01:03:31.271Z,50.60
2019-05-01T01:06:02.530Z,50.50
2019-05-01T01:08:32.325Z,50.60
2019-05-01T01:11:01.901Z,50.60
2019-05-01T01:13:31.509Z,50.60
2019-05-01T01:16:01.122Z,50.50
2019-05-01T01:18:30.865Z,50.60
2019-05-01T01:21:00.521Z,50.60
2019-05-01T01:23:30.178Z,50.50
2019-05-01T01:26:01.358Z,50.50
2019-05-01T01:28:31.044Z,50.50
2019-05-01T01:31:00.691Z,50.50
2019-05-01T01:33:31.919Z,50.50
2019-05-01T01:36:01.596Z,50.60
2019-05-01T01:38:31.252Z,50.60
2019-05-01T01:41:00.907Z,50.60
2019-05-01T01:43:55.876Z,50.50
2019-05-01T01:46:27.581Z,50.50
2019-05-01T01:48:57.272Z,50.50
2019-05-01T01:51:26.886Z,50.60
2019-05-01T01:53:56.519Z,50.50
2019-05-01T01:56:26.408Z,50.60
2019-05-01T01:58:56.106Z,50.60
2019-05-01T02:01:42.701Z,51.10
2019-05-01T02:04:33.683Z,50.50
2019-05-01T02:07:03.283Z,50.60
2019-05-01T02:09:33.021Z,50.60
2019-05-01T02:12:02.657Z,50.60
2019-05-01T02:14:32.267Z,50.60
2019-05-01T02:17:01.869Z,50.60
2019-05-01T02:19:31.472Z,50.50
2019-05-01T02:22:01.079Z,50.50
2019-05-01T02:24:30.703Z,50.60
2019-05-01T02:27:02.231Z,50.60
2019-05-01T02:29:38.136Z,50.60
2019-05-01T02:32:07.809Z,50.60
2019-05-01T02:34:37.489Z,50.50
2019-05-01T02:37:07.245Z,50.50
2019-05-01T02:39:36.896Z,50.50
2019-05-01T02:42:06.617Z,50.60
2019-05-01T02:44:40.554Z,50.60
2019-05-01T02:47:10.951Z,50.50
2019-05-01T02:49:52.554Z,50.50
2019-05-01T02:52:23.871Z,50.50
2019-05-01T02:54:54.390Z,50.60
2019-05-01T02:57:23.991Z,50.60
2019-05-01T02:59:53.692Z,50.50
2019-05-01T03:02:24.611Z,50.50
2019-05-01T03:04:54.932Z,50.50
2019-05-01T03:07:25.335Z,50.60
2019-05-01T03:09:54.921Z,50.60
2019-05-01T03:12:24.572Z,50.80
2019-05-01T03:14:54.181Z,50.70
2019-05-01T03:17:51.975Z,50.70
2019-05-01T03:20:39.481Z,50.50
2019-05-01T03:23:31.997Z,50.60
2019-05-01T03:26:01.824Z,50.60
2019-05-01T03:28:32.029Z,50.70
2019-05-01T03:31:01.804Z,50.70
2019-05-01T03:33:31.430Z,50.60
2019-05-01T03:36:01.123Z,50.50
2019-05-01T03:38:30.832Z,50.50
2019-05-01T03:41:00.563Z,50.50
2019-05-01T03:43:30.179Z,50.50
2019-05-01T03:45:59.797Z,50.50
2019-05-01T03:48:29.471Z,50.50
2019-05-01T03:50:59.144Z,50.50
2019-05-01T03:53:28.816Z,50.60
2019-05-01T03:55:58.454Z,50.60
2019-05-01T03:58:28.209Z,50.50
2019-05-01T04:01:13.635Z,50.50
2019-05-01T04:03:54.911Z,50.50
2019-05-01T04:06:24.520Z,50.70
2019-05-01T04:08:54.133Z,50.70
2019-05-01T04:11:23.795Z,50.70
2019-05-01T04:13:55.065Z,50.60
2019-05-01T04:16:24.746Z,50.60
2019-05-01T04:18:54.435Z,50.60
2019-05-01T04:21:27.249Z,50.60
2019-05-01T04:23:56.845Z,50.60
2019-05-01T04:26:26.436Z,50.60
2019-05-01T04:29:02.838Z,50.60
2019-05-01T04:31:42.419Z,50.60
2019-05-01T04:34:19.042Z,50.60
2019-05-01T04:36:51.947Z,50.80
2019-05-01T04:39:21.652Z,50.70
2019-05-01T04:41:53.374Z,50.70
2019-05-01T04:44:24.450Z,50.70
2019-05-01T04:46:55.312Z,50.70
2019-05-01T04:49:26.422Z,50.60
2019-05-01T04:51:57.520Z,50.60
2019-05-01T04:54:28.426Z,50.60
2019-05-01T04:56:59.402Z,50.60
2019-05-01T04:59:30.505Z,50.60
2019-05-01T05:02:03.005Z,50.60
2019-05-01T05:04:33.120Z,50.60
2019-05-01T05:07:03.342Z,50.60
2019-05-01T05:09:57.434Z,50.70
2019-05-01T05:12:53.017Z,50.60
2019-05-01T05:15:40.078Z,50.60
2019-05-01T05:18:10.938Z,50.60
2019-05-01T05:20:42.221Z,50.70
2019-05-01T05:23:13.553Z,51.00
2019-05-01T05:25:44.487Z,50.50
2019-05-01T05:28:15.374Z,50.60
2019-05-01T05:30:45.899Z,50.70
2019-05-01T05:33:18.447Z,50.70
2019-05-01T05:35:49.670Z,50.50
2019-05-01T05:38:54.451Z,50.60
2019-05-01T05:41:25.349Z,50.60
2019-05-01T05:43:56.611Z,50.60
2019-05-01T05:46:27.950Z,50.60
2019-05-01T05:48:59.263Z,50.60
2019-05-01T05:51:49.088Z,50.60
2019-05-01T05:54:44.811Z,51.20
2019-05-01T05:57:26.725Z,50.60
2019-05-01T06:00:02.948Z,50.70
2019-05-01T06:02:56.536Z,50.70
2019-05-01T06:05:47.135Z,50.70
2019-05-01T06:08:24.488Z,50.70
2019-05-01T06:11:22.318Z,50.70
2019-05-01T06:14:09.932Z,50.60
2019-05-01T06:17:04.910Z,50.70
2019-05-01T06:20:01.260Z,50.70
2019-05-01T06:22:40.837Z,51.00
2019-05-01T06:25:22.327Z,51.00
2019-05-01T06:27:54.045Z,50.90
2019-05-01T06:30:25.901Z,50.80
2019-05-01T06:32:57.356Z,50.80
2019-05-01T06:35:29.318Z,51.50
2019-05-01T06:38:05.715Z,50.70
2019-05-01T06:40:41.331Z,50.60
2019-05-01T06:43:25.364Z,50.70
2019-05-01T06:46:16.599Z,50.70
2019-05-01T06:48:54.702Z,50.70
2019-05-01T06:51:47.926Z,50.60
2019-05-01T06:54:17.757Z,50.70
2019-05-01T06:56:50.091Z,50.80
2019-05-01T06:59:21.623Z,50.80
2019-05-01T07:01:58.333Z,50.80
2019-05-01T07:04:32.450Z,50.70
2019-05-01T07:07:06.785Z,50.80
2019-05-01T07:09:36.694Z,50.80
2019-05-01T07:12:12.200Z,50.80
2019-05-01T07:14:47.139Z,50.70
2019-05-01T07:17:16.536Z,50.80
2019-05-01T07:20:05.598Z,50.70
2019-05-01T07:22:42.346Z,50.70
2019-05-01T07:25:10.436Z,50.80
2019-05-01T07:27:42.029Z,50.80
2019-05-01T07:30:44.405Z,50.70
2019-05-01T07:33:16.588Z,50.60
2019-05-01T07:35:48.940Z,50.70
2019-05-01T07:38:20.560Z,50.70
2019-05-01T07:40:52.160Z,50.70
2019-05-01T07:43:41.115Z,50.70
2019-05-01T07:46:38.785Z,50.70
2019-05-01T07:49:13.009Z,50.60
2019-05-01T07:51:51.756Z,50.70
2019-05-01T07:54:25.314Z,50.80
2019-05-01T07:56:58.776Z,50.70
2019-05-01T07:59:30.620Z,50.70
2019-05-01T08:02:09.958Z,50.60
2019-05-01T08:04:43.423Z,50.50
2019-05-01T08:07:15.930Z,50.40
2019-05-01T08:09:50.331Z,50.50
2019-05-01T08:12:24.122Z,50.90
2019-05-01T08:14:54.506Z,50.60
2019-05-01T08:17:28.074Z,50.60
2019-05-01T08:20:17.202Z,50.50
2019-05-01T08:22:49.303Z,50.50
2019-05-01T08:25:21.248Z,51.20
2019-05-01T08:28:13.979Z,50.50
2019-05-01T08:31:03.617Z,50.60
2019-05-01T08:34:00.098Z,50.60
2019-05-01T08:36:32.790Z,50.50
2019-05-01T08:39:05.027Z,50.50
2019-05-01T08:41:34.080Z,50.50
2019-05-01T08:44:03.958Z,50.50
2019-05-01T08:46:58.866Z,50.50
2019-05-01T08:49:32.200Z,50.50
2019-05-01T08:52:04.863Z,50.50
2019-05-01T08:54:34.931Z,50.50
2019-05-01T08:57:07.685Z,50.50
2019-05-01T08:59:36.311Z,50.50
2019-05-01T09:02:09.369Z,51.10
2019-05-01T09:04:37.519Z,50.50
2019-05-01T09:07:07.165Z,50.60
2019-05-01T09:09:39.676Z,50.60
2019-05-01T09:12:12.012Z,50.40
2019-05-01T09:14:39.689Z,50.40
2019-05-01T09:17:09.339Z,50.40
2019-05-01T09:19:39.093Z,50.40
2019-05-01T09:22:08.903Z,50.40
2019-05-01T09:24:38.615Z,50.40
2019-05-01T09:27:39.722Z,50.40
2019-05-01T09:30:21.708Z,50.40
2019-05-01T09:32:54.346Z,50.40
2019-05-01T09:35:23.411Z,50.50
2019-05-01T09:37:53.147Z,50.50
2019-05-01T09:40:22.855Z,50.40
2019-05-01T09:42:54.778Z,50.50
2019-05-01T09:45:24.017Z,50.40
2019-05-01T09:47:53.799Z,50.50
2019-05-01T09:50:25.974Z,50.40
2019-05-01T09:53:11.726Z,50.40
2019-05-01T09:55:54.400Z,50.40
2019-05-01T09:58:24.006Z,50.50
2019-05-01T10:00:56.845Z,50.50
2019-05-01T10:03:26.477Z,50.50
2019-05-01T10:05:56.142Z,50.60
2019-05-01T10:08:25.842Z,50.40
2019-05-01T10:10:59.787Z,50.50
2019-05-01T10:13:27.004Z,50.50
2019-05-01T10:15:56.658Z,50.50
2019-05-01T10:18:26.726Z,50.40
2019-05-01T10:20:56.618Z,50.40
2019-05-01T10:23:26.300Z,50.40
2019-05-01T10:25:58.034Z,50.40
2019-05-01T10:29:10.347Z,50.40
2019-05-01T10:32:02.483Z,50.40
2019-05-01T10:34:52.054Z,50.50
2019-05-01T10:37:28.516Z,51.20
2019-05-01T10:40:02.433Z,50.50
2019-05-01T10:42:36.443Z,50.50
2019-05-01T10:45:06.411Z,50.50
2019-05-01T10:47:41.439Z,50.50
2019-05-01T10:50:15.539Z,50.50
2019-05-01T10:52:48.936Z,50.60
2019-05-01T10:55:22.812Z,50.50
2019-05-01T10:57:56.503Z,50.50
2019-05-01T11:00:28.684Z,50.40
2019-05-01T11:03:00.632Z,50.50
2019-05-01T11:05:34.307Z,50.50
2019-05-01T11:08:09.215Z,50.50
2019-05-01T11:10:41.348Z,50.40
2019-05-01T11:13:13.619Z,50.40
2019-05-01T11:15:46.296Z,50.40
2019-05-01T11:18:18.330Z,50.40
2019-05-01T11:20:50.055Z,50.40
2019-05-01T11:23:22.800Z,50.40
2019-05-01T11:25:55.277Z,50.40
2019-05-01T11:28:27.808Z,50.40
2019-05-01T11:30:59.909Z,50.40
2019-05-01T11:33:49.657Z,50.30
2019-05-01T11:36:38.928Z,50.40
2019-05-01T11:39:31.053Z,50.40
2019-05-01T11:42:05.785Z,50.40
2019-05-01T11:44:38.563Z,50.50
2019-05-01T11:47:11.263Z,50.50
2019-05-01T11:49:42.578Z,50.40
2019-05-01T11:52:12.289Z,50.40
2019-05-01T11:54:41.933Z,50.30
2019-05-01T11:57:11.565Z,50.40
2019-05-01T11:59:41.184Z,50.40
2019-05-01T12:02:10.927Z,50.40
2019-05-01T12:04:40.670Z,50.40
2019-05-01T12:07:10.342Z,50.40
2019-05-01T12:09:40.159Z,50.30
2019-05-01T12:12:12.632Z,50.30
2019-05-01T12:14:42.300Z,50.30
2019-05-01T12:17:39.986Z,50.30
2019-05-01T12:20:10.441Z,50.30
2019-05-01T12:22:39.998Z,50.30
2019-05-01T12:25:09.635Z,50.30
2019-05-01T12:27:39.249Z,50.40
2019-05-01T12:30:08.944Z,50.30
2019-05-01T12:32:38.660Z,50.30
2019-05-01T12:35:08.282Z,50.30
2019-05-01T12:37:42.445Z,50.30
2019-05-01T12:40:19.739Z,50.40
2019-05-01T12:42:49.452Z,50.20
2019-05-01T12:45:20.603Z,50.20
2019-05-01T12:47:58.165Z,50.20
2019-05-01T12:50:27.739Z,50.30
2019-05-01T12:53:11.861Z,50.30
2019-05-01T12:56:15.793Z,50.20
2019-05-01T12:58:46.606Z,50.30
2019-05-01T13:01:16.312Z,50.40
2019-05-01T13:03:45.962Z,50.40
2019-05-01T13:06:15.654Z,50.30
2019-05-01T13:08:45.379Z,50.40
2019-05-01T13:11:15.058Z,50.50
2019-05-01T13:13:46.390Z,50.40
2019-05-01T13:16:16.004Z,50.40
2019-05-01T13:18:45.604Z,50.40
2019-05-01T13:21:15.300Z,50.40
2019-05-01T13:23:44.881Z,50.40
2019-05-01T13:26:27.718Z,50.40
2019-05-01T13:29:12.421Z,50.40
2019-05-01T13:32:03.959Z,50.30
2019-05-01T13:34:35.271Z,50.40
2019-05-01T13:37:04.943Z,50.40
2019-05-01T13:39:34.700Z,50.40
2019-05-01T13:42:05.427Z,50.30
2019-05-01T13:44:35.079Z,50.30
2019-05-01T13:47:04.635Z,50.30
2019-05-01T13:49:34.259Z,50.30
2019-05-01T13:52:03.863Z,50.40
2019-05-01T13:54:33.538Z,50.40
2019-05-01T13:57:03.156Z,50.50
2019-05-01T13:59:32.830Z,50.30
2019-05-01T14:02:02.542Z,50.40
2019-05-01T14:04:32.480Z,50.40
2019-05-01T14:07:02.166Z,50.40
2019-05-01T14:09:33.508Z,51.00
2019-05-01T14:12:03.201Z,50.40
2019-05-01T14:14:32.908Z,50.40
2019-05-01T14:17:02.592Z,50.40
2019-05-01T14:19:33.544Z,50.40
2019-05-01T14:22:22.337Z,50.40
2019-05-01T14:24:54.952Z,50.40
2019-05-01T14:27:26.214Z,50.40
2019-05-01T14:29:55.784Z,50.30
2019-05-01T14:32:25.528Z,50.30
2019-05-01T14:34:55.151Z,50.30
2019-05-01T14:37:29.671Z,50.40
2019-05-01T14:39:56.097Z,50.40
2019-05-01T14:42:25.894Z,50.20
2019-05-01T14:44:55.511Z,50.40
2019-05-01T14:47:25.255Z,50.40
2019-05-01T14:49:54.911Z,50.30
2019-05-01T14:52:24.562Z,50.30
2019-05-01T14:54:54.263Z,50.30
2019-05-01T14:57:24.171Z,50.30
2019-05-01T14:59:55.561Z,50.30
2019-05-01T15:02:26.912Z,50.30
2019-05-01T15:04:56.607Z,50.30
2019-05-01T15:07:26.343Z,50.30
2019-05-01T15:09:57.652Z,50.40
2019-05-01T15:12:27.465Z,50.30
2019-05-01T15:15:12.584Z,50.30
2019-05-01T15:17:49.356Z,50.40
2019-05-01T15:20:18.959Z,50.30
2019-05-01T15:22:48.732Z,50.20
2019-05-01T15:25:18.454Z,50.30
2019-05-01T15:27:48.269Z,50.20
2019-05-01T15:30:18.759Z,50.40
2019-05-01T15:32:48.422Z,50.20
2019-05-01T15:35:18.043Z,50.30
2019-05-01T15:37:56.362Z,50.30
2019-05-01T15:40:40.888Z,50.40
2019-05-01T15:43:29.569Z,50.30
2019-05-01T15:45:59.306Z,50.40
2019-05-01T15:48:28.930Z,50.30
2019-05-01T15:50:58.588Z,50.30
2019-05-01T15:53:28.284Z,50.30
2019-05-01T15:55:57.992Z,50.30
2019-05-01T15:58:27.659Z,50.40
2019-05-01T16:00:57.378Z,50.40
2019-05-01T16:03:28.055Z,50.40
2019-05-01T16:05:57.755Z,50.30
2019-05-01T16:08:27.466Z,50.40
2019-05-01T16:11:06.869Z,50.40
2019-05-01T16:13:36.508Z,50.40
2019-05-01T16:16:06.224Z,50.40
2019-05-01T16:18:35.929Z,50.40
2019-05-01T16:21:05.617Z,50.30
2019-05-01T16:23:35.343Z,50.30
2019-05-01T16:26:04.975Z,50.30
2019-05-01T16:28:34.618Z,50.30
2019-05-01T16:31:04.478Z,50.30
2019-05-01T16:33:34.315Z,50.30
2019-05-01T16:36:04.176Z,50.30
2019-05-01T16:38:55.680Z,50.20
2019-05-01T16:41:26.270Z,50.30
2019-05-01T16:43:55.887Z,50.40
2019-05-01T16:46:25.546Z,50.30
2019-05-01T16:48:55.176Z,50.30
2019-05-01T16:51:24.992Z,50.40
2019-05-01T16:53:54.723Z,50.30
2019-05-01T16:56:24.449Z,50.30
2019-05-01T16:58:54.149Z,50.30
2019-05-01T17:01:49.005Z,50.30
2019-05-01T17:04:32.536Z,50.30
2019-05-01T17:07:11.222Z,50.20
2019-05-01T17:09:58.631Z,50.20
2019-05-01T17:12:31.608Z,50.30
2019-05-01T17:15:01.404Z,50.30
2019-05-01T17:17:32.041Z,50.30
2019-05-01T17:20:01.652Z,50.30
2019-05-01T17:22:31.483Z,50.20
2019-05-01T17:25:01.200Z,50.10
2019-05-01T17:27:30.967Z,50.10
2019-05-01T17:30:00.624Z,50.30
2019-05-01T17:32:49.878Z,50.30
2019-05-01T17:35:19.702Z,50.20
2019-05-01T17:37:49.419Z,50.20
2019-05-01T17:40:19.269Z,50.20
2019-05-01T17:42:49.057Z,50.20
2019-05-01T17:45:18.974Z,50.20
2019-05-01T17:47:52.720Z,50.20
2019-05-01T17:50:21.094Z,50.10
2019-05-01T17:52:51.624Z,50.10
2019-05-01T17:55:22.945Z,50.10
2019-05-01T17:57:52.838Z,50.10
2019-05-01T18:00:42.696Z,50.10
2019-05-01T18:03:34.706Z,50.20
2019-05-01T18:06:16.886Z,50.20
2019-05-01T18:08:48.571Z,50.30
2019-05-01T18:11:18.576Z,50.30
2019-05-01T18:13:48.516Z,50.30
2019-05-01T18:16:18.546Z,50.20
2019-05-01T18:18:48.602Z,50.90
2019-05-01T18:21:18.576Z,50.10
2019-05-01T18:24:23.297Z,50.20
2019-05-01T18:27:20.425Z,50.30
2019-05-01T18:30:00.071Z,50.30
2019-05-01T18:32:52.394Z,50.40
2019-05-01T18:35:20.633Z,50.50
2019-05-01T18:38:13.026Z,50.50
2019-05-01T18:40:45.514Z,50.40
2019-05-01T18:43:15.579Z,50.40
2019-05-01T18:45:50.295Z,50.30
2019-05-01T18:48:20.257Z,50.40
2019-05-01T18:50:54.884Z,50.50
2019-05-01T18:53:21.747Z,50.50
2019-05-01T18:55:51.844Z,50.50
2019-05-01T18:58:21.632Z,50.50
2019-05-01T19:00:51.538Z,50.50
2019-05-01T19:03:22.541Z,50.50
2019-05-01T19:05:53.186Z,50.50
2019-05-01T19:08:23.042Z,50.50
2019-05-01T19:10:53.012Z,50.60
2019-05-01T19:13:23.018Z,50.40
2019-05-01T19:15:53.553Z,50.60
2019-05-01T19:18:23.438Z,50.50
2019-05-01T19:20:59.783Z,50.50
2019-05-01T19:23:27.917Z,50.50
2019-05-01T19:26:04.948Z,50.50
2019-05-01T19:28:29.208Z,50.50
2019-05-01T19:30:59.160Z,50.50
2019-05-01T19:33:28.938Z,50.50
2019-05-01T19:36:02.552Z,50.50
2019-05-01T19:38:35.061Z,50.50
2019-05-01T19:41:14.001Z,50.50
2019-05-01T19:43:42.119Z,50.50
2019-05-01T19:46:12.703Z,50.50
2019-05-01T19:48:45.399Z,50.50
2019-05-01T19:51:14.149Z,50.50
2019-05-01T19:53:46.453Z,50.60
2019-05-01T19:56:16.714Z,50.60
2019-05-01T19:58:47.654Z,50.60
2019-05-01T20:01:17.630Z,50.60
2019-05-01T20:03:47.505Z,50.60
2019-05-01T20:06:17.300Z,50.80
2019-05-01T20:08:47.019Z,50.70
2019-05-01T20:11:17.101Z,50.70
2019-05-01T20:13:47.071Z,50.70
2019-05-01T20:16:17.803Z,50.60
2019-05-01T20:18:47.697Z,50.70
2019-05-01T20:21:19.383Z,50.80
2019-05-01T20:23:49.163Z,50.70
2019-05-01T20:26:18.933Z,50.70
2019-05-01T20:28:48.815Z,50.60
2019-05-01T20:31:20.397Z,50.70
2019-05-01T20:33:50.261Z,50.50
2019-05-01T20:36:20.539Z,50.60
2019-05-01T20:38:52.311Z,50.50
2019-05-01T20:41:22.397Z,50.60
2019-05-01T20:43:52.030Z,50.50
2019-05-01T20:46:26.129Z,50.50
2019-05-01T20:48:55.905Z,50.50
2019-05-01T20:51:25.026Z,50.60
2019-05-01T20:53:55.020Z,50.50
2019-05-01T20:56:39.007Z,50.50
2019-05-01T20:59:08.841Z,50.50
2019-05-01T21:01:38.828Z,50.50
2019-05-01T21:04:30.792Z,50.50
2019-05-01T21:07:21.288Z,50.50
2019-05-01T21:09:56.879Z,50.50
2019-05-01T21:12:22.894Z,50.40
2019-05-01T21:14:52.732Z,50.50
2019-05-01T21:17:22.421Z,50.50
2019-05-01T21:19:54.339Z,50.50
2019-05-01T21:22:24.705Z,50.50
2019-05-01T21:24:54.716Z,50.50
2019-05-01T21:27:24.532Z,50.50
2019-05-01T21:29:54.490Z,50.50
2019-05-01T21:32:27.470Z,50.50
2019-05-01T21:34:57.167Z,50.50
2019-05-01T21:37:27.195Z,50.50
2019-05-01T21:39:57.092Z,50.50
2019-05-01T21:42:26.878Z,50.50
2019-05-01T21:44:56.840Z,50.40
2019-05-01T21:47:26.638Z,50.40
2019-05-01T21:49:56.430Z,50.40
2019-05-01T21:52:26.951Z,50.50
2019-05-01T21:54:57.470Z,50.50
2019-05-01T21:57:30.069Z,50.40
2019-05-01T21:59:58.891Z,50.50
2019-05-01T22:02:28.729Z,50.50
2019-05-01T22:05:03.855Z,50.50
2019-05-01T22:07:30.055Z,50.50
2019-05-01T22:09:59.773Z,50.50
2019-05-01T22:12:29.566Z,50.50
2019-05-01T22:15:10.907Z,50.50
2019-05-01T22:18:09.394Z,50.50
2019-05-01T22:20:46.785Z,50.60
2019-05-01T22:23:21.889Z,50.60
2019-05-01T22:25:52.926Z,50.50
2019-05-01T22:28:34.467Z,50.50
2019-05-01T22:31:29.513Z,50.60
2019-05-01T22:34:07.836Z,50.60
2019-05-01T22:36:38.715Z,50.50
2019-05-01T22:39:08.792Z,50.40
2019-05-01T22:41:40.648Z,50.50
2019-05-01T22:44:12.842Z,50.40
2019-05-01T22:46:42.311Z,50.50
2019-05-01T22:49:12.279Z,50.50
2019-05-01T22:51:42.103Z,50.40
2019-05-01T22:54:11.940Z,50.40
2019-05-01T22:56:41.625Z,50.40
2019-05-01T22:59:12.445Z,50.40
2019-05-01T23:01:43.877Z,50.40
2019-05-01T23:04:17.299Z,50.40
2019-05-01T23:06:45.622Z,50.40
2019-05-01T23:09:17.274Z,50.40
2019-05-01T23:11:48.853Z,50.50
2019-05-01T23:14:18.758Z,50.40
2019-05-01T23:17:03.343Z,50.40
2019-05-01T23:19:33.690Z,50.40
2019-05-01T23:22:03.478Z,50.40
2019-05-01T23:24:33.244Z,50.40
2019-05-01T23:27:02.940Z,50.40
2019-05-01T23:29:32.826Z,50.30
2019-05-01T23:32:02.652Z,50.40
2019-05-01T23:34:32.420Z,50.40
2019-05-01T23:37:02.112Z,50.40
2019-05-01T23:39:39.735Z,50.30
2019-05-01T23:42:03.508Z,50.40
2019-05-01T23:44:33.240Z,50.30
2019-05-01T23:47:03.045Z,50.40
2019-05-01T23:49:32.731Z,50.40
2019-05-01T23:52:03.341Z,50.30
2019-05-01T23:54:34.224Z,50.30
2019-05-01T23:57:04.053Z,50.30
2019-05-01T23:59:33.764Z,50.30
